Parma — V2OZ9 — position and weather

sailwx.info

Track history (hours):
 
Tides and Currents Weather Stations Pressure Air Temp Water Temp Dewpoint Dewpoint Depression Visibility Wind Speed Wind Dir Waves Ship Positions

Parma

Last reported at 2014-Aug-28 19:33 UTC. Time now 2014-Sep-03 04:39 UTC.
Position N 42°42' E 009°57'.

MMSI: 279073176.

Date/timePositionNaut miles runAvg speedWind from/ knotsBaromVisibWave heightAir tempDewpointWater temp
2014-Aug-28 19:33N 42°42' E 009°57'8 8.1
2014-Aug-28 18:33N 42°50' E 009°60'9 8.7
2014-Aug-28 17:33N 42°58' E 010°02'10 9.7
2014-Aug-28 16:33N 43°08' E 010°05'1010.0
2014-Aug-28 15:33N 43°18' E 010°08'9 9.5
2014-Aug-28 14:33N 43°27' E 010°11'8 7.9
2014-Aug-28 13:33N 43°33' E 010°18'2 1.5
2014-Aug-28 12:28N 43°34' E 010°19'0 0.0
2014-Aug-28 11:31N 43°34' E 010°19'0 0.0
2014-Aug-28 10:31N 43°34' E 010°19'0 0.0
2014-Aug-28 09:25N 43°34' E 010°19'0 0.0
2014-Aug-28 08:31N 43°34' E 010°19'0 0.0
2014-Aug-28 07:22N 43°34' E 010°19'0 0.0
2014-Aug-28 06:31N 43°34' E 010°19'0 0.0
2014-Aug-28 05:31N 43°34' E 010°19'0 0.0
2014-Aug-28 04:31N 43°34' E 010°19'0 0.0
2014-Aug-28 03:31N 43°34' E 010°19'0 0.0
2014-Aug-28 02:28N 43°34' E 010°19'0 0.0
2014-Aug-28 01:31N 43°34' E 010°19'0 0.0
2014-Aug-28 00:28N 43°34' E 010°19'0 0.0
2014-Aug-27 23:31N 43°34' E 010°19'0 0.0
2014-Aug-27 22:31N 43°34' E 010°19'0 0.0
2014-Aug-27 21:31N 43°34' E 010°19'0 0.0
2014-Aug-27 20:28N 43°34' E 010°19'0 0.0
2014-Aug-27 19:28N 43°34' E 010°19'0 0.0
2014-Aug-27 18:28N 43°34' E 010°19'0 0.0
2014-Aug-27 17:31N 43°34' E 010°19'0 0.0
2014-Aug-27 16:31N 43°34' E 010°19'0 0.0
2014-Aug-27 15:31N 43°34' E 010°19'0 0.0
2014-Aug-27 14:31N 43°34' E 010°19'0 0.0
2014-Aug-27 13:31N 43°34' E 010°19'3 3.4
2014-Aug-27 12:33N 43°32' E 010°16'1 1.2
2014-Aug-27 11:31N 43°31' E 010°17'0 0.0
2014-Aug-27 10:28N 43°31' E 010°17'0 0.0
2014-Aug-27 09:28N 43°31' E 010°17'0 0.0
2014-Aug-27 08:31N 43°31' E 010°17'0 0.0
2014-Aug-27 07:31N 43°31' E 010°17'0 0.0
2014-Aug-27 06:31N 43°31' E 010°17'0 0.1
2014-Aug-27 05:34N 43°31' E 010°17'7 7.3
2014-Aug-27 04:33N 43°26' E 010°09'9 9.4
2014-Aug-27 03:33N 43°20' E 009°60'9 9.4
2014-Aug-27 02:33N 43°16' E 009°48'195 9.7
2014-Aug-26 06:24N 41°08' E 006°28'12 9.7
2014-Aug-26 05:10N 41°00' E 006°17'1212.7
2014-Aug-26 04:15N 40°52' E 006°06'8 6.7
2014-Aug-26 03:03N 40°47' E 005°58'33 9.4
2014-Aug-25 23:28N 40°23' E 005°26'9 9.5
2014-Aug-25 22:32N 40°17' E 005°17'10 9.8
2014-Aug-25 21:32N 40°11' E 005°08'10 9.6
2014-Aug-25 20:33N 40°04' E 004°59'10 9.6
2014-Aug-25 19:29N 39°57' E 004°49'1110.0
2014-Aug-25 18:22N 39°49' E 004°39'8 9.2
2014-Aug-25 17:30N 39°44' E 004°31'9 9.9
2014-Aug-25 16:33N 39°38' E 004°22'1110.0
2014-Aug-25 15:29N 39°32' E 004°10'31 9.7
2014-Aug-25 12:18N 39°16' E 003°36'8 9.6
2014-Aug-25 11:26N 39°11' E 003°27'9 9.7
2014-Aug-25 10:33N 39°07' E 003°18'10 9.7
2014-Aug-25 09:33N 39°01' E 003°07'9 9.5
2014-Aug-25 08:33N 38°56' E 002°57'9 9.3
2014-Aug-25 07:33N 38°51' E 002°47'9 9.3
2014-Aug-25 06:33N 38°46' E 002°37'10 9.6
2014-Aug-25 05:33N 38°41' E 002°26'10 9.9
2014-Aug-25 04:33N 38°36' E 002°16'10 9.9
2014-Aug-25 03:33N 38°31' E 002°05'70 9.3
2014-Aug-24 20:06N 37°53' E 000°50'  
2014-Aug-22 08:24N 36°38' W 009°21'8 9.3
2014-Aug-22 07:33N 36°43' W 009°27'  
Track history (hours):
 
Tides and Currents Weather Stations Pressure Air Temp Water Temp Dewpoint Dewpoint Depression Visibility Wind Speed Wind Dir Waves Ship Positions

Parma

Last reported at 2014-Aug-28 19:33 UTC. Time now 2014-Sep-03 04:39 UTC.
Position N 42°42' E 009°57'.

MMSI: 279073176.

Date/timePositionNaut miles runAvg speedWind from/ knotsBaromVisibWave heightAir tempDewpointWater temp
2014-Aug-28 19:33N 42°42' E 009°57'8 8.1
2014-Aug-28 18:33N 42°50' E 009°60'9 8.7
2014-Aug-28 17:33N 42°58' E 010°02'10 9.7
2014-Aug-28 16:33N 43°08' E 010°05'1010.0
2014-Aug-28 15:33N 43°18' E 010°08'9 9.5
2014-Aug-28 14:33N 43°27' E 010°11'8 7.9
2014-Aug-28 13:33N 43°33' E 010°18'2 1.5
2014-Aug-28 12:28N 43°34' E 010°19'0 0.0
2014-Aug-28 11:31N 43°34' E 010°19'0 0.0
2014-Aug-28 10:31N 43°34' E 010°19'0 0.0
2014-Aug-28 09:25N 43°34' E 010°19'0 0.0
2014-Aug-28 08:31N 43°34' E 010°19'0 0.0
2014-Aug-28 07:22N 43°34' E 010°19'0 0.0
2014-Aug-28 06:31N 43°34' E 010°19'0 0.0
2014-Aug-28 05:31N 43°34' E 010°19'0 0.0
2014-Aug-28 04:31N 43°34' E 010°19'0 0.0
2014-Aug-28 03:31N 43°34' E 010°19'0 0.0
2014-Aug-28 02:28N 43°34' E 010°19'0 0.0
2014-Aug-28 01:31N 43°34' E 010°19'0 0.0
2014-Aug-28 00:28N 43°34' E 010°19'0 0.0
2014-Aug-27 23:31N 43°34' E 010°19'0 0.0
2014-Aug-27 22:31N 43°34' E 010°19'0 0.0
2014-Aug-27 21:31N 43°34' E 010°19'0 0.0
2014-Aug-27 20:28N 43°34' E 010°19'0 0.0
2014-Aug-27 19:28N 43°34' E 010°19'0 0.0
2014-Aug-27 18:28N 43°34' E 010°19'0 0.0
2014-Aug-27 17:31N 43°34' E 010°19'0 0.0
2014-Aug-27 16:31N 43°34' E 010°19'0 0.0
2014-Aug-27 15:31N 43°34' E 010°19'0 0.0
2014-Aug-27 14:31N 43°34' E 010°19'0 0.0
2014-Aug-27 13:31N 43°34' E 010°19'3 3.4
2014-Aug-27 12:33N 43°32' E 010°16'1 1.2
2014-Aug-27 11:31N 43°31' E 010°17'0 0.0
2014-Aug-27 10:28N 43°31' E 010°17'0 0.0
2014-Aug-27 09:28N 43°31' E 010°17'0 0.0
2014-Aug-27 08:31N 43°31' E 010°17'0 0.0
2014-Aug-27 07:31N 43°31' E 010°17'0 0.0
2014-Aug-27 06:31N 43°31' E 010°17'0 0.1
2014-Aug-27 05:34N 43°31' E 010°17'7 7.3
2014-Aug-27 04:33N 43°26' E 010°09'9 9.4
2014-Aug-27 03:33N 43°20' E 009°60'9 9.4
2014-Aug-27 02:33N 43°16' E 009°48'195 9.7
2014-Aug-26 06:24N 41°08' E 006°28'12 9.7
2014-Aug-26 05:10N 41°00' E 006°17'1212.7
2014-Aug-26 04:15N 40°52' E 006°06'8 6.7
2014-Aug-26 03:03N 40°47' E 005°58'33 9.4
2014-Aug-25 23:28N 40°23' E 005°26'9 9.5
2014-Aug-25 22:32N 40°17' E 005°17'10 9.8
2014-Aug-25 21:32N 40°11' E 005°08'10 9.6
2014-Aug-25 20:33N 40°04' E 004°59'10 9.6
2014-Aug-25 19:29N 39°57' E 004°49'1110.0
2014-Aug-25 18:22N 39°49' E 004°39'8 9.2
2014-Aug-25 17:30N 39°44' E 004°31'9 9.9
2014-Aug-25 16:33N 39°38' E 004°22'1110.0
2014-Aug-25 15:29N 39°32' E 004°10'31 9.7
2014-Aug-25 12:18N 39°16' E 003°36'8 9.6
2014-Aug-25 11:26N 39°11' E 003°27'9 9.7
2014-Aug-25 10:33N 39°07' E 003°18'10 9.7
2014-Aug-25 09:33N 39°01' E 003°07'9 9.5
2014-Aug-25 08:33N 38°56' E 002°57'9 9.3
2014-Aug-25 07:33N 38°51' E 002°47'9 9.3
2014-Aug-25 06:33N 38°46' E 002°37'10 9.6
2014-Aug-25 05:33N 38°41' E 002°26'10 9.9
2014-Aug-25 04:33N 38°36' E 002°16'10 9.9
2014-Aug-25 03:33N 38°31' E 002°05'70 9.3
2014-Aug-24 20:06N 37°53' E 000°50'  
2014-Aug-22 08:24N 36°38' W 009°21'8 9.3
2014-Aug-22 07:33N 36°43' W 009°27'  

Dump ship's entire track history